To NAV CANADA Home Page Login to a new session Search on AWWS site Disclaimer Vers la page française équivalente Tips FAQ What's new on the site To the Forecasts and Observations / NOTAM section To "File a Flight Plan" website Publications and other links Update of the User's profile FIC Telephone Numbers My Weather Data Folder Route Weather Data Regional Weather Data Local Weather Data To the Forecasts and Observations / NOTAM section
Request Generated 10/19/2018 at 15:28:23 UTC . Weather information available at that time is displayed.

METAR/TAF

BAIE-COMEAU/QC    (show WxCam)

METAR CYBC 191500Z AUTO 24007KT 9SM FEW085 M00/M06 A2999 RMK SLP157=
METAR CYBC 191400Z AUTO 24008KT 9SM CLR M01/M07 A3000 RMK SLP162=
METAR CYBC 191300Z AUTO 29003KT 250V320 9SM CLR M01/M07 A3001 RMK SLP165=

TAF CYBC 191338Z 1914/2002 29005KT P6SM SCT030 BKN170
FM191800 18010G20KT P6SM -SN OVC030 TEMPO 1918/1922 5SM -SN
OVC020 PROB30 1918/1922 1SM -SN
FM192200 12012KT P6SM OVC030 TEMPO 1922/1924 OVC020
FM200000 14012G22KT 6SM -SNRA OVC020 TEMPO 2000/2002 2SM -SN
OVC008 PROB30 2000/2002 1SM -SN
RMK FCST BASED ON AUTO OBS. NXT FCST BY 192000Z=
Your time UTC time
Weather data provided by Environment Canada and NAV CANADA